Terminal Aerodrome Forecast
Issued by NWS

Home | Current Version | Previous Version | Text Only | Print | Product List | Glossary On
Versions: 1 2 3 4 5 6 7 8 9 10 11 12 13 14 15 16 17 18 19
670
FTUS43 KFGF 281120
TAFDVL
TAF
KDVL 281120Z 2812/2912 03007KT P6SM OVC007
     FM281700 02006KT P6SM BKN015
     FM281800 02006KT P6SM BKN035
     FM282300 02006KT P6SM BKN070=

USA.gov is the U.S. government's official web portal to all federal, state and local government web resources and services.